Salt Lake City, Utah
Traffic Map
Current Weather Conditions
Salt Lake City, Utah
Broken Clouds
Broken Clouds
17°
Feels Like: 17°
Wind Chill: 17° Ceiling: 10000
Heat Index: 17° Visibility: 10mi
Dew Point: Wind: 8mph
Humidity: 37% Direction: 280° (W)
Pressure: 29.73in Gusts: 0mph
Raw Report DataKSLC 251654Z 28007KT 10SM FEW060 SCT080 BKN100 17/02 A2973 RMK AO2 SLP021 VIRGA DSNT NE-S TCU DSNT N T01670017
Traffic Incident Summary
Active as of:
Severity:
Category:
InformationThere was an issue retrieving the traffic information for this location. Please try a different location or try again shortly.
Advertisements
Track Severe Weather on mobile